createdAt,value
2023-01-01T00:00:18.901Z,8.88
2023-01-01T00:03:06.238Z,6.53
2023-01-01T00:05:33.457Z,5.25
2023-01-01T00:08:04.526Z,8.45
2023-01-01T00:10:32.089Z,6.45
2023-01-01T00:13:00.037Z,7.57
2023-01-01T00:15:28.399Z,5.90
2023-01-01T00:17:56.073Z,6.53
2023-01-01T00:20:23.116Z,8.98
2023-01-01T00:22:55.014Z,7.43
2023-01-01T00:25:23.891Z,8.55
2023-01-01T00:27:51.677Z,8.05
2023-01-01T00:30:19.193Z,8.98
2023-01-01T00:32:55.506Z,8.23
2023-01-01T00:35:25.668Z,7.07
2023-01-01T00:37:54.328Z,8.40
2023-01-01T00:40:21.583Z,7.90
2023-01-01T00:42:48.617Z,8.90
2023-01-01T00:45:20.885Z,7.97
2023-01-01T00:47:53.381Z,6.70
2023-01-01T00:50:23.562Z,9.13
2023-01-01T00:52:50.754Z,8.73
2023-01-01T00:55:17.918Z,11.00
2023-01-01T00:57:45.040Z,8.10
2023-01-01T01:00:12.460Z,11.18
2023-01-01T01:02:39.629Z,8.10
2023-01-01T01:05:07.523Z,9.75
2023-01-01T01:07:39.286Z,10.32
2023-01-01T01:10:07.938Z,9.93
2023-01-01T01:12:35.462Z,12.20
2023-01-01T01:15:03.253Z,11.45
2023-01-01T01:17:30.422Z,14.25
2023-01-01T01:19:57.336Z,11.60
2023-01-01T01:22:28.598Z,12.15
2023-01-01T01:24:57.015Z,12.50
2023-01-01T01:27:24.996Z,11.67
2023-01-01T01:29:52.347Z,9.68
2023-01-01T01:32:19.816Z,12.07
2023-01-01T01:34:47.073Z,9.18
2023-01-01T01:37:14.496Z,11.02
2023-01-01T01:39:41.341Z,10.45
2023-01-01T01:42:12.577Z,9.50
2023-01-01T01:44:45.656Z,8.23
2023-01-01T01:47:22.678Z,10.87
2023-01-01T01:49:55.869Z,8.43
2023-01-01T01:52:23.169Z,10.20
2023-01-01T01:54:50.109Z,8.48
2023-01-01T01:57:18.245Z,10.80
2023-01-01T01:59:50.838Z,8.70
2023-01-01T02:02:34.422Z,11.10
2023-01-01T02:05:02.170Z,8.87
2023-01-01T02:07:31.733Z,8.77
2023-01-01T02:09:59.013Z,7.97
2023-01-01T02:12:27.355Z,9.15
2023-01-01T02:14:54.780Z,8.33
2023-01-01T02:17:39.025Z,8.85
2023-01-01T02:20:19.359Z,13.00
2023-01-01T02:23:05.034Z,9.48
2023-01-01T02:25:49.529Z,9.65
2023-01-01T02:29:07.922Z,11.38
2023-01-01T02:31:42.259Z,8.75
2023-01-01T02:34:14.268Z,12.13
2023-01-01T02:36:48.640Z,9.50
2023-01-01T02:39:17.908Z,10.13
2023-01-01T02:41:48.659Z,9.27
2023-01-01T02:44:16.934Z,13.88
2023-01-01T02:46:43.737Z,11.70
2023-01-01T02:49:11.924Z,8.77
2023-01-01T02:52:04.982Z,11.55
2023-01-01T02:54:50.743Z,10.40
2023-01-01T02:57:23.583Z,9.43
2023-01-01T03:00:27.676Z,9.13
2023-01-01T03:03:16.960Z,10.20
2023-01-01T03:06:14.569Z,13.80
2023-01-01T03:08:52.742Z,11.15
2023-01-01T03:11:22.950Z,8.33
2023-01-01T03:14:03.507Z,8.40
2023-01-01T03:17:35.395Z,9.23
2023-01-01T03:20:10.392Z,9.60
2023-01-01T03:25:12.506Z,8.00
2023-01-01T03:28:15.033Z,8.63
2023-01-01T03:30:44.653Z,9.02
2023-01-01T03:33:18.579Z,9.68
2023-01-01T03:35:59.837Z,8.65
2023-01-01T03:38:29.658Z,7.38
2023-01-01T03:41:05.199Z,9.65
2023-01-01T03:43:44.722Z,8.05
2023-01-01T03:46:14.527Z,8.60
2023-01-01T03:49:02.623Z,8.30
2023-01-01T03:51:38.521Z,10.18
2023-01-01T03:54:21.657Z,9.18
2023-01-01T03:56:57.617Z,8.35
2023-01-01T03:59:33.164Z,7.93
2023-01-01T04:02:04.427Z,9.38
2023-01-01T04:04:31.785Z,10.00
2023-01-01T04:07:09.329Z,8.60
2023-01-01T04:09:47.130Z,8.38
2023-01-01T04:12:16.517Z,8.75
2023-01-01T04:14:43.707Z,6.13
2023-01-01T04:17:12.356Z,8.07
2023-01-01T04:19:39.519Z,8.48
2023-01-01T04:22:06.646Z,13.13
2023-01-01T04:24:33.741Z,9.95
2023-01-01T04:27:00.582Z,8.63
2023-01-01T04:29:27.780Z,8.43
2023-01-01T04:31:54.702Z,10.02
2023-01-01T04:34:21.730Z,8.82
2023-01-01T04:36:48.597Z,10.35
2023-01-01T04:39:15.777Z,10.07
2023-01-01T04:41:42.619Z,7.63
2023-01-01T04:44:09.756Z,7.82
2023-01-01T04:46:36.522Z,6.97
2023-01-01T04:49:03.510Z,6.07
2023-01-01T04:51:30.299Z,8.95
2023-01-01T04:53:59.346Z,6.10
2023-01-01T04:56:26.075Z,10.03
2023-01-01T04:58:53.191Z,10.43
2023-01-01T05:01:23.195Z,7.40
2023-01-01T05:03:50.519Z,9.02
2023-01-01T05:06:18.184Z,7.32
2023-01-01T05:08:48.179Z,7.60
2023-01-01T05:11:16.369Z,9.53
2023-01-01T05:13:46.477Z,6.22
2023-01-01T05:16:18.473Z,6.47
2023-01-01T05:18:46.404Z,7.60
2023-01-01T05:21:15.937Z,6.55
2023-01-01T05:23:43.223Z,6.82
2023-01-01T05:26:15.729Z,8.65
2023-01-01T05:28:43.435Z,6.33
2023-01-01T05:31:14.101Z,7.35
2023-01-01T05:33:41.921Z,6.78
2023-01-01T05:36:14.031Z,8.77
2023-01-01T05:38:41.109Z,9.45
2023-01-01T05:41:09.518Z,7.75
2023-01-01T05:43:36.908Z,9.68
2023-01-01T05:46:10.202Z,9.63
2023-01-01T05:48:37.833Z,9.32
2023-01-01T05:51:11.138Z,9.77
2023-01-01T05:53:38.485Z,9.13
2023-01-01T05:56:06.479Z,8.25
2023-01-01T05:58:35.375Z,6.90
2023-01-01T06:01:06.883Z,7.55
2023-01-01T06:03:34.025Z,10.10
2023-01-01T06:06:06.085Z,7.25
2023-01-01T06:08:33.274Z,8.57
2023-01-01T06:11:02.054Z,8.75
2023-01-01T06:13:29.793Z,7.05
2023-01-01T06:15:58.465Z,7.95
2023-01-01T06:18:26.871Z,8.45
2023-01-01T06:20:53.741Z,9.65
2023-01-01T06:23:20.818Z,6.95
2023-01-01T06:25:47.584Z,9.02
2023-01-01T06:28:14.701Z,7.83
2023-01-01T06:30:41.563Z,10.50
2023-01-01T06:33:08.683Z,9.97
2023-01-01T06:35:35.631Z,11.20
2023-01-01T06:38:02.633Z,8.60
2023-01-01T06:40:29.459Z,11.20
2023-01-01T06:42:56.621Z,8.13
2023-01-01T06:45:23.451Z,11.03
2023-01-01T06:47:50.493Z,14.30
2023-01-01T06:50:17.201Z,9.60
2023-01-01T06:52:44.331Z,12.97
2023-01-01T06:55:11.120Z,10.90
2023-01-01T06:57:38.257Z,11.13
2023-01-01T07:00:05.585Z,16.10
2023-01-01T07:02:32.967Z,8.63
2023-01-01T07:04:59.999Z,11.63
2023-01-01T07:07:29.937Z,9.77
2023-01-01T07:10:00.980Z,10.70
2023-01-01T07:12:28.091Z,9.87
2023-01-01T07:14:55.677Z,12.00
2023-01-01T07:17:22.747Z,12.97
2023-01-01T07:19:49.496Z,8.87
2023-01-01T07:22:16.535Z,9.50
2023-01-01T07:24:43.306Z,15.88
2023-01-01T07:27:10.338Z,12.43
2023-01-01T07:29:37.096Z,12.02
2023-01-01T07:32:04.375Z,17.83
2023-01-01T07:34:31.107Z,11.30
2023-01-01T07:36:58.200Z,12.38
2023-01-01T07:39:24.945Z,9.10
2023-01-01T07:41:52.072Z,13.57
2023-01-01T07:44:18.813Z,12.32
2023-01-01T07:46:45.944Z,11.32
2023-01-01T07:49:12.827Z,10.27
2023-01-01T07:51:39.835Z,13.75
2023-01-01T07:54:07.789Z,10.93
2023-01-01T07:56:36.002Z,11.93
2023-01-01T07:59:03.108Z,13.40
2023-01-01T08:01:30.302Z,10.25
2023-01-01T08:03:57.172Z,11.43
2023-01-01T08:06:24.260Z,10.38
2023-01-01T08:08:51.225Z,12.65
2023-01-01T08:11:18.306Z,11.43
2023-01-01T08:13:45.168Z,13.85
2023-01-01T08:16:12.208Z,9.70
2023-01-01T08:18:39.928Z,13.27
2023-01-01T08:21:08.854Z,18.30
2023-01-01T08:23:35.579Z,15.63
2023-01-01T08:26:03.267Z,13.93
2023-01-01T08:28:31.249Z,15.90
2023-01-01T08:30:59.442Z,15.02
2023-01-01T08:33:29.334Z,15.68
2023-01-01T08:35:56.646Z,12.70
2023-01-01T08:38:23.737Z,13.52
2023-01-01T08:40:50.836Z,12.48
2023-01-01T08:43:17.623Z,10.88
2023-01-01T08:45:45.542Z,9.07
2023-01-01T08:48:12.398Z,12.82
2023-01-01T08:50:39.358Z,13.52
2023-01-01T08:53:06.068Z,14.05
2023-01-01T08:55:33.112Z,15.63
2023-01-01T08:57:59.936Z,14.20
2023-01-01T09:00:27.168Z,7.97
2023-01-01T09:02:54.142Z,14.90
2023-01-01T09:05:21.309Z,10.05
2023-01-01T09:07:48.074Z,9.60
2023-01-01T09:10:15.123Z,10.98
2023-01-01T09:12:42.050Z,7.97
2023-01-01T09:15:17.025Z,14.13
2023-01-01T09:17:43.844Z,13.80
2023-01-01T09:20:10.973Z,13.68
2023-01-01T09:22:37.773Z,18.40
2023-01-01T09:25:05.096Z,14.55
2023-01-01T09:27:31.896Z,6.65
2023-01-01T09:29:59.826Z,11.60
2023-01-01T09:32:26.734Z,12.23
2023-01-01T09:34:53.778Z,10.30
2023-01-01T09:37:20.589Z,11.63
2023-01-01T09:39:47.657Z,13.35
2023-01-01T09:42:27.049Z,10.20
2023-01-01T09:45:28.113Z,6.97
2023-01-01T09:47:58.944Z,10.30
2023-01-01T09:50:38.623Z,8.48
2023-01-01T09:53:15.132Z,9.43
2023-01-01T09:55:51.304Z,14.73
2023-01-01T09:58:23.085Z,13.50
2023-01-01T10:00:54.335Z,8.68
2023-01-01T10:03:54.045Z,8.32
2023-01-01T10:06:28.556Z,10.13
2023-01-01T10:09:00.348Z,11.40
2023-01-01T10:11:32.968Z,14.15
2023-01-01T10:14:01.712Z,9.20
2023-01-01T10:16:40.182Z,10.52
2023-01-01T10:19:39.989Z,12.07
2023-01-01T10:22:25.888Z,9.18
2023-01-01T10:24:59.950Z,6.65
2023-01-01T10:27:33.936Z,10.75
2023-01-01T10:30:04.576Z,12.55
2023-01-01T10:32:35.147Z,9.38
2023-01-01T10:35:10.842Z,8.57
2023-01-01T10:37:38.763Z,11.68
2023-01-01T10:40:23.691Z,13.63
2023-01-01T10:42:59.065Z,11.52
2023-01-01T10:45:38.070Z,10.95
2023-01-01T10:48:23.130Z,12.57
2023-01-01T10:50:53.570Z,11.70
2023-01-01T10:53:29.552Z,7.30
2023-01-01T10:56:03.183Z,9.32
2023-01-01T10:58:48.834Z,10.05
2023-01-01T11:01:18.687Z,8.68
2023-01-01T11:04:04.127Z,7.55
2023-01-01T11:06:35.359Z,9.38
2023-01-01T11:09:26.588Z,11.80
2023-01-01T11:12:11.884Z,10.93
2023-01-01T11:14:54.147Z,12.95
2023-01-01T11:17:23.900Z,14.05
2023-01-01T11:19:56.671Z,10.10
2023-01-01T11:22:39.836Z,6.50
2023-01-01T11:25:23.037Z,10.38
2023-01-01T11:27:51.588Z,14.50
2023-01-01T11:30:20.612Z,7.68
2023-01-01T11:32:55.122Z,9.52
2023-01-01T11:35:26.235Z,15.13
2023-01-01T11:37:55.114Z,8.45
2023-01-01T11:40:47.598Z,10.75
2023-01-01T11:43:24.850Z,8.23
2023-01-01T11:45:54.792Z,9.98
2023-01-01T11:48:34.471Z,13.30
2023-01-01T11:51:05.154Z,11.90
2023-01-01T11:53:33.228Z,7.95
2023-01-01T11:56:20.353Z,6.35
2023-01-01T11:59:06.735Z,8.82
2023-01-01T12:01:52.349Z,7.90
2023-01-01T12:04:37.335Z,10.25
2023-01-01T12:07:15.964Z,9.40
2023-01-01T12:09:48.823Z,10.27
2023-01-01T12:12:24.927Z,15.52
2023-01-01T12:15:06.142Z,6.95
2023-01-01T12:17:43.502Z,11.27
2023-01-01T12:20:23.275Z,6.90
2023-01-01T12:22:50.571Z,7.50
2023-01-01T12:25:19.741Z,10.43
2023-01-01T12:28:11.609Z,10.70
2023-01-01T12:31:03.409Z,9.13
2023-01-01T12:33:33.274Z,10.40
2023-01-01T12:36:39.000Z,9.45
2023-01-01T12:39:27.775Z,8.75
2023-01-01T12:42:18.059Z,11.18
2023-01-01T12:45:06.382Z,13.32
2023-01-01T12:47:48.880Z,6.50
2023-01-01T12:50:24.779Z,11.25
2023-01-01T12:53:04.011Z,9.30
2023-01-01T12:55:43.291Z,12.63
2023-01-01T12:58:27.116Z,10.30
2023-01-01T13:00:58.767Z,13.30
2023-01-01T13:03:33.592Z,10.40
2023-01-01T13:06:02.434Z,10.30
2023-01-01T13:08:29.214Z,7.60
2023-01-01T13:10:58.959Z,11.65
2023-01-01T13:13:26.266Z,10.65
2023-01-01T13:15:57.515Z,8.48
2023-01-01T13:18:34.532Z,9.85
2023-01-01T13:21:06.415Z,8.68
2023-01-01T13:23:36.021Z,8.50
2023-01-01T13:26:18.437Z,8.48
2023-01-01T13:28:57.161Z,10.52
2023-01-01T13:31:39.592Z,7.78
2023-01-01T13:34:31.719Z,9.43
2023-01-01T13:37:10.747Z,9.32
2023-01-01T13:39:58.950Z,13.07
2023-01-01T13:42:59.016Z,11.15
2023-01-01T13:46:11.116Z,9.82
2023-01-01T13:49:01.150Z,9.07
2023-01-01T13:52:07.139Z,10.07
2023-01-01T13:54:53.168Z,9.00
2023-01-01T13:57:50.704Z,8.60
2023-01-01T14:00:32.599Z,9.45
2023-01-01T14:03:02.827Z,7.55
2023-01-01T14:05:38.125Z,11.00
2023-01-01T14:08:08.594Z,12.48
2023-01-01T14:10:38.687Z,10.70
2023-01-01T14:13:05.374Z,13.05
2023-01-01T14:15:35.710Z,8.20
2023-01-01T14:18:11.522Z,10.52
2023-01-01T14:20:54.275Z,9.40
2023-01-01T14:23:32.190Z,9.68
2023-01-01T14:26:06.795Z,10.00
2023-01-01T14:28:35.475Z,9.90
2023-01-01T14:31:12.090Z,7.75
2023-01-01T14:33:39.757Z,17.25
2023-01-01T14:36:26.055Z,10.45
2023-01-01T14:38:58.424Z,10.48
2023-01-01T14:41:37.605Z,10.48
2023-01-01T14:44:13.342Z,7.88
2023-01-01T14:46:43.751Z,10.02
2023-01-01T14:49:16.683Z,9.00
2023-01-01T14:51:55.404Z,8.82
2023-01-01T14:54:27.766Z,10.73
2023-01-01T14:56:55.051Z,9.13
2023-01-01T14:59:28.929Z,8.95
2023-01-01T15:02:13.240Z,7.18
2023-01-01T15:04:40.848Z,9.02
2023-01-01T15:07:22.644Z,9.68
2023-01-01T15:09:51.161Z,14.25
2023-01-01T15:12:18.323Z,10.18
2023-01-01T15:14:47.845Z,8.15
2023-01-01T15:17:18.250Z,12.07
2023-01-01T15:19:47.389Z,9.48
2023-01-01T15:22:25.020Z,10.43
2023-01-01T15:24:52.000Z,12.07
2023-01-01T15:27:35.536Z,14.07
2023-01-01T15:30:09.864Z,9.40
2023-01-01T15:32:41.004Z,14.88
2023-01-01T15:35:38.095Z,8.75
2023-01-01T15:38:16.292Z,9.50
2023-01-01T15:40:49.447Z,11.63
2023-01-01T15:43:19.989Z,12.75
2023-01-01T15:45:54.603Z,9.00
2023-01-01T15:48:37.463Z,8.57
2023-01-01T15:51:24.610Z,11.60
2023-01-01T15:53:56.658Z,9.13
2023-01-01T15:56:27.097Z,9.23
2023-01-01T15:59:08.467Z,8.45
2023-01-01T16:01:39.059Z,10.20
2023-01-01T16:04:11.068Z,8.30
2023-01-01T16:06:50.691Z,14.40
2023-01-01T16:09:19.870Z,13.77
2023-01-01T16:11:52.045Z,8.18
2023-01-01T16:14:19.205Z,10.25
2023-01-01T16:16:51.239Z,12.10
2023-01-01T16:19:19.362Z,9.50
2023-01-01T16:21:46.079Z,11.55
2023-01-01T16:24:17.349Z,10.98
2023-01-01T16:26:44.984Z,13.95
2023-01-01T16:29:12.406Z,8.48
2023-01-01T16:31:40.475Z,10.32
2023-01-01T16:34:09.013Z,8.77
2023-01-01T16:36:35.770Z,8.13
2023-01-01T16:39:02.908Z,11.40
2023-01-01T16:41:30.331Z,10.98
2023-01-01T16:43:57.814Z,10.50
2023-01-01T16:46:25.897Z,9.98
2023-01-01T16:48:53.326Z,9.05
2023-01-01T16:51:24.289Z,13.00
2023-01-01T16:53:51.302Z,15.10
2023-01-01T16:56:18.365Z,10.88
2023-01-01T16:58:51.547Z,10.03
2023-01-01T17:01:21.617Z,10.95
2023-01-01T17:03:49.960Z,9.63
2023-01-01T17:06:17.293Z,11.40
2023-01-01T17:08:44.429Z,11.10
2023-01-01T17:11:15.202Z,11.98
2023-01-01T17:13:43.757Z,9.25
2023-01-01T17:16:12.539Z,10.85
2023-01-01T17:19:13.241Z,10.60
2023-01-01T17:21:26.706Z,12.15
2023-01-01T17:23:53.862Z,12.07
2023-01-01T17:26:23.380Z,11.13
2023-01-01T17:28:58.077Z,9.45
2023-01-01T17:31:28.706Z,10.05
2023-01-01T17:33:56.126Z,10.40
2023-01-01T17:36:23.327Z,10.52
2023-01-01T17:38:50.311Z,14.30
2023-01-01T17:41:18.004Z,11.32
2023-01-01T17:43:47.248Z,12.73
2023-01-01T17:46:15.392Z,12.67
2023-01-01T17:48:43.855Z,9.13
2023-01-01T17:51:12.461Z,10.97
2023-01-01T17:53:40.024Z,12.47
2023-01-01T17:56:08.621Z,13.20
2023-01-01T17:58:36.353Z,11.52
2023-01-01T18:01:34.726Z,10.35
2023-01-01T18:04:05.348Z,14.18
2023-01-01T18:06:38.818Z,10.43
2023-01-01T18:09:11.403Z,14.18
2023-01-01T18:11:38.367Z,13.98
2023-01-01T18:14:05.861Z,12.95
2023-01-01T18:16:37.199Z,12.70
2023-01-01T18:19:05.485Z,14.27
2023-01-01T18:21:33.295Z,12.25
2023-01-01T18:24:00.658Z,12.27
2023-01-01T18:26:30.604Z,12.98
2023-01-01T18:29:01.943Z,16.33
2023-01-01T18:31:31.667Z,15.00
2023-01-01T18:33:59.243Z,14.45
2023-01-01T18:36:28.913Z,15.93
2023-01-01T18:39:09.273Z,15.07
2023-01-01T18:41:52.805Z,10.00
2023-01-01T18:44:24.905Z,18.13
2023-01-01T18:46:58.102Z,12.87
2023-01-01T18:49:25.631Z,12.15
2023-01-01T18:52:02.345Z,12.93
2023-01-01T18:54:29.713Z,13.70
2023-01-01T18:57:10.066Z,12.43
2023-01-01T18:59:37.628Z,11.53
2023-01-01T19:02:23.106Z,15.45
2023-01-01T19:04:50.766Z,13.50
2023-01-01T19:07:18.127Z,11.75
2023-01-01T19:09:45.213Z,17.67
2023-01-01T19:12:18.362Z,12.70
2023-01-01T19:14:45.476Z,20.13
2023-01-01T19:17:23.140Z,15.02
2023-01-01T19:19:52.478Z,15.10
2023-01-01T19:22:30.893Z,14.02
2023-01-01T19:25:02.862Z,17.98
2023-01-01T19:27:34.087Z,11.87
2023-01-01T19:30:01.921Z,14.07
2023-01-01T19:32:28.760Z,12.33
2023-01-01T19:34:56.387Z,18.63
2023-01-01T19:37:23.229Z,14.53
2023-01-01T19:39:51.583Z,16.73
2023-01-01T19:42:18.545Z,16.77
2023-01-01T19:44:45.824Z,17.57
2023-01-01T19:47:12.943Z,13.35
2023-01-01T19:49:40.102Z,15.23
2023-01-01T19:52:07.386Z,13.33
2023-01-01T19:54:34.606Z,14.03
2023-01-01T19:57:01.586Z,15.17
2023-01-01T19:59:32.941Z,15.00
2023-01-01T20:02:43.251Z,15.67
2023-01-01T20:04:48.996Z,14.07
2023-01-01T20:07:17.461Z,13.00
2023-01-01T20:09:44.635Z,18.57
2023-01-01T20:12:11.568Z,16.87
2023-01-01T20:14:38.785Z,16.30
2023-01-01T20:17:05.583Z,18.77
2023-01-01T20:19:32.926Z,15.20
2023-01-01T20:22:11.879Z,17.77
2023-01-01T20:24:42.342Z,16.13
2023-01-01T20:27:09.809Z,20.93
2023-01-01T20:29:37.095Z,17.67
2023-01-01T20:32:05.203Z,19.37
2023-01-01T20:34:32.428Z,15.73
2023-01-01T20:37:18.052Z,14.90
2023-01-01T20:39:45.309Z,16.13
2023-01-01T20:42:12.410Z,16.07
2023-01-01T20:44:42.756Z,20.33
2023-01-01T20:47:11.176Z,18.10
2023-01-01T20:49:38.439Z,18.13
2023-01-01T20:52:05.319Z,18.43
2023-01-01T20:54:32.404Z,16.00
2023-01-01T20:56:59.215Z,17.30
2023-01-01T20:59:41.975Z,16.20
2023-01-01T21:02:11.074Z,19.83
2023-01-01T21:04:39.650Z,19.97
2023-01-01T21:07:11.814Z,16.10
2023-01-01T21:09:40.619Z,15.05
2023-01-01T21:12:08.227Z,19.10
2023-01-01T21:14:35.782Z,18.73
2023-01-01T21:17:35.070Z,15.47
2023-01-01T21:20:02.507Z,15.63
2023-01-01T21:22:29.302Z,17.23
2023-01-01T21:25:16.833Z,21.17
2023-01-01T21:27:44.289Z,19.47
2023-01-01T21:30:12.656Z,19.07
2023-01-01T21:32:43.274Z,16.67
2023-01-01T21:35:23.820Z,21.00
2023-01-01T21:37:53.359Z,18.47
2023-01-01T21:40:39.046Z,21.23
2023-01-01T21:43:05.980Z,18.10
2023-01-01T21:45:40.768Z,15.43
2023-01-01T21:48:27.953Z,18.77
2023-01-01T21:50:55.299Z,15.57
2023-01-01T21:53:49.235Z,21.02
2023-01-01T21:56:36.501Z,20.73
2023-01-01T21:59:27.128Z,17.60
2023-01-01T22:02:06.210Z,21.50
2023-01-01T22:04:54.113Z,19.97
2023-01-01T22:10:21.654Z,19.73
2023-01-01T22:12:53.013Z,15.70
2023-01-01T22:15:26.170Z,16.33
2023-01-01T22:18:11.828Z,17.53
2023-01-01T22:20:41.815Z,16.70
2023-01-01T22:23:20.072Z,15.48
2023-01-01T22:25:47.656Z,21.80
2023-01-01T22:28:25.917Z,19.00
2023-01-01T22:30:57.471Z,21.77
2023-01-01T22:33:37.010Z,17.70
2023-01-01T22:36:12.624Z,19.88
2023-01-01T22:38:39.872Z,18.70
2023-01-01T22:41:08.205Z,19.85
2023-01-01T22:43:40.757Z,19.02
2023-01-01T22:46:18.811Z,18.08
2023-01-01T22:48:48.041Z,18.47
2023-01-01T22:51:24.589Z,17.73
2023-01-01T22:53:51.679Z,18.48
2023-01-01T22:56:18.554Z,17.65
2023-01-01T22:58:45.529Z,19.00
2023-01-01T23:01:12.360Z,20.37
2023-01-01T23:03:39.592Z,18.50
2023-01-01T23:06:06.726Z,19.63
2023-01-01T23:08:33.721Z,19.50
2023-01-01T23:11:02.445Z,20.20
2023-01-01T23:13:47.898Z,16.67
2023-01-01T23:16:14.813Z,17.47
2023-01-01T23:18:42.737Z,22.33
2023-01-01T23:21:14.493Z,17.85
2023-01-01T23:23:41.880Z,20.37
2023-01-01T23:26:09.403Z,17.80
2023-01-01T23:28:37.039Z,20.63
2023-01-01T23:31:07.413Z,17.40
2023-01-01T23:33:35.094Z,21.35
2023-01-01T23:36:02.537Z,21.07
2023-01-01T23:38:31.944Z,18.98
2023-01-01T23:40:58.790Z,22.43
2023-01-01T23:43:25.854Z,22.20
2023-01-01T23:45:52.940Z,22.60
2023-01-01T23:48:20.005Z,19.20
2023-01-01T23:50:47.698Z,22.75
2023-01-01T23:53:14.865Z,23.17
2023-01-01T23:55:42.278Z,22.33
2023-01-01T23:58:09.353Z,22.20
